createdAt,value
2017-09-03T00:00:05.213Z,11.00
2017-09-03T00:02:32.950Z,11.00
2017-09-03T00:05:00.487Z,11.00
2017-09-03T00:07:28.174Z,11.00
2017-09-03T00:09:55.714Z,11.00
2017-09-03T00:12:23.248Z,10.90
2017-09-03T00:14:50.823Z,10.90
2017-09-03T00:17:18.934Z,10.90
2017-09-03T00:19:46.895Z,10.80
2017-09-03T00:22:14.433Z,10.70
2017-09-03T00:24:45.653Z,10.70
2017-09-03T00:27:13.184Z,10.70
2017-09-03T00:29:41.186Z,10.70
2017-09-03T00:32:08.719Z,10.70
2017-09-03T00:34:36.259Z,10.70
2017-09-03T00:37:04.485Z,10.70
2017-09-03T00:39:32.027Z,10.70
2017-09-03T00:41:59.566Z,10.70
2017-09-03T00:44:27.429Z,10.70
2017-09-03T00:46:54.964Z,10.70
2017-09-03T00:49:22.506Z,10.60
2017-09-03T00:51:50.085Z,10.60
2017-09-03T00:54:17.665Z,10.50
2017-09-03T00:56:45.200Z,10.50
2017-09-03T00:59:12.782Z,10.50
2017-09-03T01:01:40.647Z,10.40
2017-09-03T01:04:08.989Z,10.30
2017-09-03T01:06:36.526Z,10.30
2017-09-03T01:09:04.101Z,10.30
2017-09-03T01:11:31.638Z,10.30
2017-09-03T01:13:59.214Z,10.20
2017-09-03T01:16:26.793Z,10.20
2017-09-03T01:18:54.410Z,10.20
2017-09-03T01:21:21.948Z,10.10
2017-09-03T01:23:49.482Z,10.10
2017-09-03T01:26:17.220Z,10.00
2017-09-03T01:28:44.808Z,10.00
2017-09-03T01:31:12.347Z,10.00
2017-09-03T01:33:39.890Z,10.10
2017-09-03T01:36:07.469Z,10.10
2017-09-03T01:38:35.020Z,10.10
2017-09-03T01:41:02.732Z,10.10
2017-09-03T01:43:30.287Z,10.00
2017-09-03T01:45:57.883Z,10.00
2017-09-03T01:48:25.425Z,10.00
2017-09-03T01:50:53.134Z,9.90
2017-09-03T01:53:20.662Z,9.90
2017-09-03T01:55:48.560Z,9.90
2017-09-03T01:58:16.093Z,9.80
2017-09-03T02:00:44.085Z,9.80
2017-09-03T02:03:11.826Z,9.80
2017-09-03T02:05:39.405Z,9.80
2017-09-03T02:08:06.938Z,9.70
2017-09-03T02:10:34.506Z,9.80
2017-09-03T02:13:02.042Z,9.80
2017-09-03T02:15:29.613Z,9.70
2017-09-03T02:17:57.153Z,9.70
2017-09-03T02:20:25.177Z,9.70
2017-09-03T02:22:52.701Z,9.70
2017-09-03T02:25:20.269Z,9.70
2017-09-03T02:27:47.807Z,9.70
2017-09-03T02:30:15.381Z,9.60
2017-09-03T02:32:42.958Z,9.60
2017-09-03T02:35:10.499Z,9.60
2017-09-03T02:37:38.033Z,9.60
2017-09-03T02:40:05.609Z,9.60
2017-09-03T02:42:33.142Z,9.60
2017-09-03T02:45:00.737Z,9.60
2017-09-03T02:47:28.271Z,9.50
2017-09-03T02:49:55.841Z,9.50
2017-09-03T02:52:23.368Z,9.50
2017-09-03T02:54:51.001Z,9.50
2017-09-03T02:57:18.539Z,9.50
2017-09-03T02:59:46.073Z,9.40
2017-09-03T03:02:13.993Z,9.40
2017-09-03T03:04:41.524Z,9.40
2017-09-03T03:07:09.193Z,9.40
2017-09-03T03:09:36.732Z,9.30
2017-09-03T03:12:04.647Z,9.20
2017-09-03T03:14:32.176Z,9.30
2017-09-03T03:16:59.709Z,9.30
2017-09-03T03:19:31.017Z,9.30
2017-09-03T03:21:58.680Z,9.30
2017-09-03T03:24:26.204Z,9.30
2017-09-03T03:26:55.338Z,9.30
2017-09-03T03:29:22.872Z,9.30
2017-09-03T03:31:50.415Z,9.30
2017-09-03T03:34:18.041Z,9.30
2017-09-03T03:36:45.622Z,9.20
2017-09-03T03:39:13.157Z,9.20
2017-09-03T03:41:40.881Z,9.20
2017-09-03T03:44:08.422Z,9.10
2017-09-03T03:46:35.955Z,9.10
2017-09-03T03:49:03.539Z,9.10
2017-09-03T03:51:31.070Z,9.10
2017-09-03T03:53:58.596Z,9.10
2017-09-03T03:56:26.172Z,9.10
2017-09-03T03:58:53.705Z,9.10
2017-09-03T04:01:21.941Z,9.10
2017-09-03T04:03:49.469Z,9.00
2017-09-03T04:06:16.998Z,9.00
2017-09-03T04:08:44.574Z,9.00
2017-09-03T04:11:12.261Z,9.00
2017-09-03T04:13:39.785Z,8.90
2017-09-03T04:16:07.321Z,8.90
2017-09-03T04:18:35.532Z,8.90
2017-09-03T04:21:03.064Z,8.90
2017-09-03T04:23:30.790Z,8.90
2017-09-03T04:25:58.740Z,8.80
2017-09-03T04:28:26.274Z,8.80
2017-09-03T04:30:53.813Z,8.80
2017-09-03T04:33:21.434Z,8.80
2017-09-03T04:35:49.159Z,8.80
2017-09-03T04:38:16.698Z,8.80
2017-09-03T04:40:44.271Z,8.80
2017-09-03T04:43:11.806Z,8.80
2017-09-03T04:45:39.658Z,8.80
2017-09-03T04:48:08.051Z,8.80
2017-09-03T04:50:35.585Z,8.80
2017-09-03T04:53:03.170Z,8.80
2017-09-03T04:55:30.742Z,8.80
2017-09-03T04:57:58.295Z,8.70
2017-09-03T05:00:25.881Z,8.70
2017-09-03T05:02:55.042Z,8.70
2017-09-03T05:05:22.616Z,8.70
2017-09-03T05:07:50.162Z,8.70
2017-09-03T05:10:17.743Z,8.70
2017-09-03T05:12:45.267Z,8.70
2017-09-03T05:15:12.909Z,8.80
2017-09-03T05:17:40.462Z,8.70
2017-09-03T05:20:08.100Z,8.70
2017-09-03T05:22:35.638Z,8.70
2017-09-03T05:25:03.366Z,8.60
2017-09-03T05:27:30.906Z,8.60
2017-09-03T05:30:03.583Z,8.60
2017-09-03T05:32:31.116Z,8.50
2017-09-03T05:34:58.653Z,8.50
2017-09-03T05:37:26.348Z,8.60
2017-09-03T05:39:53.880Z,8.60
2017-09-03T05:42:21.466Z,8.60
2017-09-03T05:44:49.041Z,8.60
2017-09-03T05:47:16.613Z,8.70
2017-09-03T05:49:44.147Z,8.70
2017-09-03T05:52:11.721Z,8.80
2017-09-03T05:54:39.259Z,8.80
2017-09-03T05:57:06.841Z,8.80
2017-09-03T05:59:34.375Z,8.90
2017-09-03T06:02:02.029Z,8.90
2017-09-03T06:04:29.565Z,9.00
2017-09-03T06:06:58.621Z,9.00
2017-09-03T06:09:26.158Z,9.10
2017-09-03T06:11:53.709Z,9.10
2017-09-03T06:14:21.359Z,9.20
2017-09-03T06:16:49.010Z,9.20
2017-09-03T06:19:19.802Z,9.30
2017-09-03T06:21:47.374Z,9.40
2017-09-03T06:24:14.913Z,9.40
2017-09-03T06:26:42.480Z,9.50
2017-09-03T06:29:10.019Z,9.60
2017-09-03T06:31:39.246Z,9.60
2017-09-03T06:34:06.793Z,9.70
2017-09-03T06:36:34.335Z,9.80
2017-09-03T06:39:01.908Z,9.80
2017-09-03T06:41:29.486Z,9.90
2017-09-03T06:43:57.029Z,10.00
2017-09-03T06:46:24.601Z,10.00
2017-09-03T06:48:52.137Z,10.10
2017-09-03T06:51:19.714Z,10.20
2017-09-03T06:53:47.250Z,10.30
2017-09-03T06:56:14.835Z,10.30
2017-09-03T06:58:42.385Z,10.40
2017-09-03T07:01:09.971Z,10.50
2017-09-03T07:03:37.512Z,10.60
2017-09-03T07:06:05.098Z,10.70
2017-09-03T07:08:32.647Z,10.70
2017-09-03T07:11:00.309Z,10.80
2017-09-03T07:13:28.105Z,10.90
2017-09-03T07:15:55.689Z,11.00
2017-09-03T07:18:23.231Z,11.10
2017-09-03T07:20:52.213Z,11.10
2017-09-03T07:23:19.758Z,11.20
2017-09-03T07:25:47.304Z,11.30
2017-09-03T07:28:14.889Z,11.40
2017-09-03T07:30:42.433Z,11.50
2017-09-03T07:33:09.973Z,11.60
2017-09-03T07:35:39.062Z,11.70
2017-09-03T07:38:06.608Z,11.80
2017-09-03T07:40:34.193Z,11.90
2017-09-03T07:43:01.742Z,12.00
2017-09-03T07:45:29.721Z,12.00
2017-09-03T07:47:57.261Z,12.10
2017-09-03T07:50:24.816Z,12.20
2017-09-03T07:52:52.404Z,12.30
2017-09-03T07:55:21.190Z,12.40
2017-09-03T07:57:48.743Z,12.50
2017-09-03T08:00:16.325Z,12.60
2017-09-03T08:02:43.869Z,12.60
2017-09-03T08:05:11.614Z,12.70
2017-09-03T08:07:39.174Z,12.80
2017-09-03T08:10:06.773Z,12.90
2017-09-03T08:12:34.350Z,13.00
2017-09-03T08:15:02.023Z,13.10
2017-09-03T08:17:29.605Z,13.20
2017-09-03T08:19:57.169Z,13.30
2017-09-03T08:22:25.169Z,13.40
2017-09-03T08:24:52.708Z,13.50
2017-09-03T08:27:20.253Z,13.60
2017-09-03T08:29:47.848Z,13.70
2017-09-03T08:32:15.424Z,13.80
2017-09-03T08:34:42.969Z,13.90
2017-09-03T08:37:10.575Z,14.00
2017-09-03T08:39:38.121Z,14.20
2017-09-03T08:42:05.754Z,14.30
2017-09-03T08:44:33.312Z,14.40
2017-09-03T08:47:00.920Z,14.50
2017-09-03T08:49:29.010Z,14.60
2017-09-03T08:51:56.772Z,14.60
2017-09-03T08:54:24.601Z,14.70
2017-09-03T08:56:52.164Z,14.80
2017-09-03T08:59:19.710Z,14.90
2017-09-03T09:01:47.626Z,15.00
2017-09-03T09:04:15.538Z,15.10
2017-09-03T09:06:43.081Z,15.20
2017-09-03T09:09:10.630Z,15.30
2017-09-03T09:11:38.293Z,15.40
2017-09-03T09:14:06.176Z,15.50
2017-09-03T09:16:33.722Z,15.60
2017-09-03T09:19:01.267Z,15.70
2017-09-03T09:21:29.010Z,15.80
2017-09-03T09:23:56.592Z,15.90
2017-09-03T09:26:24.157Z,15.90
2017-09-03T09:28:51.789Z,16.00
2017-09-03T09:31:19.332Z,16.10
2017-09-03T09:33:47.280Z,16.20
2017-09-03T09:36:14.849Z,16.30
2017-09-03T09:38:42.520Z,16.40
2017-09-03T09:41:10.128Z,16.50
2017-09-03T09:43:38.109Z,16.60
2017-09-03T09:46:05.677Z,16.70
2017-09-03T09:48:33.273Z,16.70
2017-09-03T09:51:00.861Z,16.80
2017-09-03T09:53:28.471Z,16.90
2017-09-03T09:55:56.024Z,17.00
2017-09-03T09:58:23.615Z,17.10
2017-09-03T10:00:51.221Z,17.20
2017-09-03T10:03:21.894Z,17.20
2017-09-03T10:05:49.601Z,17.20
2017-09-03T10:08:17.182Z,17.30
2017-09-03T10:10:44.871Z,17.40
2017-09-03T10:13:12.474Z,17.40
2017-09-03T10:18:43.654Z,17.70
2017-09-03T10:21:11.247Z,17.80
2017-09-03T10:23:38.824Z,17.90
2017-09-03T10:26:06.383Z,17.90
2017-09-03T10:28:34.045Z,18.00
2017-09-03T10:31:01.585Z,18.10
2017-09-03T10:33:29.190Z,18.00
2017-09-03T10:35:56.734Z,18.00
2017-09-03T10:38:24.289Z,18.00
2017-09-03T10:40:56.973Z,18.00
2017-09-03T10:43:24.521Z,17.90
2017-09-03T10:45:52.063Z,18.00
2017-09-03T10:48:19.671Z,18.10
2017-09-03T10:50:47.249Z,18.20
2017-09-03T10:53:14.802Z,18.30
2017-09-03T10:55:42.397Z,18.40
2017-09-03T10:58:09.947Z,18.50
2017-09-03T11:00:37.557Z,18.60
2017-09-03T11:03:05.122Z,18.80
2017-09-03T11:05:32.704Z,19.00
2017-09-03T11:08:00.262Z,19.10
2017-09-03T11:10:27.857Z,19.20
2017-09-03T11:12:55.405Z,19.30
2017-09-03T11:15:22.990Z,19.30
2017-09-03T11:17:50.543Z,19.20
2017-09-03T11:20:18.253Z,19.20
2017-09-03T11:22:45.806Z,19.30
2017-09-03T11:25:13.384Z,19.50
2017-09-03T11:27:40.937Z,19.60
2017-09-03T11:30:08.586Z,19.70
2017-09-03T11:32:36.137Z,19.90
2017-09-03T11:35:03.765Z,19.90
2017-09-03T11:37:31.309Z,20.00
2017-09-03T11:39:59.208Z,20.10
2017-09-03T11:42:26.769Z,20.10
2017-09-03T11:44:54.306Z,20.20
2017-09-03T11:47:21.889Z,20.20
2017-09-03T11:49:49.432Z,20.20
2017-09-03T11:52:17.014Z,20.20
2017-09-03T11:54:44.562Z,20.30
2017-09-03T11:57:12.554Z,20.40
2017-09-03T11:59:40.101Z,20.50
2017-09-03T12:02:07.633Z,20.50
2017-09-03T12:04:35.273Z,20.50
2017-09-03T12:07:02.923Z,20.60
2017-09-03T12:09:30.465Z,20.60
2017-09-03T12:11:58.046Z,20.70
2017-09-03T12:14:25.587Z,20.70
2017-09-03T12:16:53.538Z,20.70
2017-09-03T12:19:22.491Z,20.70
2017-09-03T12:21:50.042Z,20.80
2017-09-03T12:24:17.624Z,20.80
2017-09-03T12:26:45.178Z,20.80
2017-09-03T12:29:13.081Z,20.80
2017-09-03T12:31:40.666Z,20.90
2017-09-03T12:34:08.214Z,20.90
2017-09-03T12:36:36.178Z,20.90
2017-09-03T12:39:03.730Z,20.90
2017-09-03T12:41:31.279Z,21.00
2017-09-03T12:43:58.864Z,21.00
2017-09-03T12:46:26.930Z,21.00
2017-09-03T12:48:54.473Z,21.10
2017-09-03T12:51:22.013Z,21.20
2017-09-03T12:53:49.740Z,21.20
2017-09-03T12:56:17.305Z,21.30
2017-09-03T12:58:44.897Z,21.40
2017-09-03T13:01:12.557Z,21.40
2017-09-03T13:03:40.149Z,21.50
2017-09-03T13:06:07.686Z,21.50
2017-09-03T13:08:35.265Z,21.60
2017-09-03T13:11:02.815Z,21.50
2017-09-03T13:13:30.773Z,21.60
2017-09-03T13:15:58.309Z,21.60
2017-09-03T13:18:25.859Z,21.60
2017-09-03T13:20:53.602Z,21.60
2017-09-03T13:23:21.458Z,21.60
2017-09-03T13:25:49.178Z,21.50
2017-09-03T13:28:16.762Z,21.30
2017-09-03T13:30:44.360Z,21.30
2017-09-03T13:33:11.905Z,21.30
2017-09-03T13:35:39.483Z,21.40
2017-09-03T13:38:07.073Z,21.50
2017-09-03T13:40:34.614Z,21.50
2017-09-03T13:43:02.212Z,21.60
2017-09-03T13:45:29.833Z,21.70
2017-09-03T13:47:57.379Z,21.80
2017-09-03T13:50:24.928Z,21.80
2017-09-03T13:52:52.516Z,21.90
2017-09-03T13:55:20.099Z,21.90
2017-09-03T13:57:47.690Z,22.00
2017-09-03T14:00:15.277Z,22.00
2017-09-03T14:02:42.968Z,22.00
2017-09-03T14:05:10.521Z,22.00
2017-09-03T14:07:40.601Z,21.90
2017-09-03T14:10:08.142Z,21.80
2017-09-03T14:12:35.730Z,21.60
2017-09-03T14:15:03.276Z,21.40
2017-09-03T14:17:30.854Z,21.30
2017-09-03T14:19:58.658Z,21.20
2017-09-03T14:22:26.246Z,21.00
2017-09-03T14:24:53.798Z,20.90
2017-09-03T14:27:21.393Z,20.90
2017-09-03T14:29:48.927Z,20.90
2017-09-03T14:32:16.464Z,21.00
2017-09-03T14:34:44.040Z,21.10
2017-09-03T14:37:11.578Z,21.10
2017-09-03T14:39:39.346Z,21.20
2017-09-03T14:42:06.890Z,21.30
2017-09-03T14:44:34.442Z,21.40
2017-09-03T14:47:02.270Z,21.40
2017-09-03T14:49:29.821Z,21.40
2017-09-03T14:51:57.367Z,21.40
2017-09-03T14:54:24.963Z,21.40
2017-09-03T14:56:52.503Z,21.40
2017-09-03T14:59:20.398Z,21.40
2017-09-03T15:01:48.151Z,21.40
2017-09-03T15:04:15.695Z,21.40
2017-09-03T15:06:44.707Z,21.40
2017-09-03T15:09:12.423Z,21.40
2017-09-03T15:11:39.956Z,21.50
2017-09-03T15:14:07.532Z,21.50
2017-09-03T15:16:35.086Z,21.50
2017-09-03T15:19:02.670Z,21.50
2017-09-03T15:21:31.128Z,21.50
2017-09-03T15:23:58.664Z,21.60
2017-09-03T15:26:26.547Z,21.60
2017-09-03T15:28:54.081Z,21.60
2017-09-03T15:31:21.613Z,21.60
2017-09-03T15:33:49.186Z,21.60
2017-09-03T15:36:16.787Z,21.50
2017-09-03T15:38:44.353Z,21.50
2017-09-03T15:41:12.300Z,21.40
2017-09-03T15:43:39.889Z,21.40
2017-09-03T15:46:07.437Z,21.40
2017-09-03T15:48:36.981Z,21.30
2017-09-03T15:51:04.540Z,21.20
2017-09-03T15:53:32.212Z,21.10
2017-09-03T15:56:00.018Z,21.00
2017-09-03T15:58:27.572Z,20.90
2017-09-03T16:00:55.161Z,20.80
2017-09-03T16:03:32.908Z,20.70
2017-09-03T16:06:00.488Z,20.60
2017-09-03T16:08:28.033Z,20.50
2017-09-03T16:10:55.806Z,20.40
2017-09-03T16:13:23.358Z,20.50
2017-09-03T16:15:52.378Z,20.70
2017-09-03T16:18:19.930Z,20.80
2017-09-03T16:20:52.415Z,20.80
2017-09-03T16:23:19.963Z,20.80
2017-09-03T16:25:47.576Z,20.70
2017-09-03T16:28:17.319Z,20.60
2017-09-03T16:30:45.704Z,20.30
2017-09-03T16:33:13.556Z,20.20
2017-09-03T16:35:42.468Z,20.20
2017-09-03T16:38:10.007Z,20.10
2017-09-03T16:40:37.551Z,20.00
2017-09-03T16:43:05.147Z,19.90
2017-09-03T16:45:32.691Z,19.70
2017-09-03T16:48:00.553Z,19.70
2017-09-03T16:50:28.093Z,19.50
2017-09-03T16:52:55.677Z,19.40
2017-09-03T16:55:23.218Z,19.40
2017-09-03T16:57:50.818Z,19.30
2017-09-03T17:00:21.449Z,19.20
2017-09-03T17:02:49.123Z,19.10
2017-09-03T17:05:20.798Z,19.00
2017-09-03T17:07:48.380Z,19.00
2017-09-03T17:10:15.923Z,18.90
2017-09-03T17:12:43.829Z,18.80
2017-09-03T17:15:11.376Z,18.70
2017-09-03T17:17:38.972Z,18.60
2017-09-03T17:20:06.528Z,18.50
2017-09-03T17:22:34.397Z,18.40
2017-09-03T17:25:01.943Z,18.30
2017-09-03T17:27:29.492Z,18.20
2017-09-03T17:29:59.812Z,18.10
2017-09-03T17:32:27.906Z,18.00
2017-09-03T17:34:55.989Z,17.90
2017-09-03T17:37:34.271Z,17.80
2017-09-03T17:40:01.816Z,17.70
2017-09-03T17:42:44.777Z,17.70
2017-09-03T17:45:12.314Z,17.50
2017-09-03T17:47:39.864Z,17.50
2017-09-03T17:50:07.715Z,17.40
2017-09-03T17:52:35.259Z,17.30
2017-09-03T17:55:02.804Z,17.20
2017-09-03T17:57:30.413Z,17.20
2017-09-03T17:59:57.968Z,17.10
2017-09-03T18:02:25.632Z,17.00
2017-09-03T18:04:53.849Z,17.00
2017-09-03T18:07:24.270Z,16.90
2017-09-03T18:09:51.822Z,16.80
2017-09-03T18:12:19.410Z,16.80
2017-09-03T18:14:46.971Z,16.70
2017-09-03T18:17:14.685Z,16.60
2017-09-03T18:19:42.372Z,16.50
2017-09-03T18:22:10.080Z,16.40
2017-09-03T18:24:37.642Z,16.40
2017-09-03T18:27:05.228Z,16.40
2017-09-03T18:29:50.973Z,16.30
2017-09-03T18:32:18.582Z,16.30
2017-09-03T18:34:46.121Z,16.30
2017-09-03T18:37:18.243Z,16.20
2017-09-03T18:39:49.441Z,16.20
2017-09-03T18:42:17.644Z,16.10
2017-09-03T18:44:45.202Z,16.10
2017-09-03T18:47:12.769Z,16.00
2017-09-03T18:49:50.255Z,16.00
2017-09-03T18:52:17.808Z,15.90
2017-09-03T18:54:45.389Z,15.80
2017-09-03T18:57:12.922Z,15.80
2017-09-03T18:59:40.505Z,15.70
2017-09-03T19:02:09.719Z,15.70
2017-09-03T19:04:55.385Z,15.70
2017-09-03T19:07:22.930Z,15.70
2017-09-03T19:09:52.789Z,15.60
2017-09-03T19:12:20.392Z,15.60
2017-09-03T19:14:48.220Z,15.60
2017-09-03T19:17:15.753Z,15.50
2017-09-03T19:19:43.295Z,15.50
2017-09-03T19:22:11.518Z,15.50
2017-09-03T19:24:39.122Z,15.50
2017-09-03T19:27:06.672Z,15.40
2017-09-03T19:29:38.222Z,15.30
2017-09-03T19:32:05.761Z,15.30
2017-09-03T19:34:33.318Z,15.30
2017-09-03T19:37:01.405Z,15.20
2017-09-03T19:39:31.144Z,15.20
2017-09-03T19:41:58.721Z,15.10
2017-09-03T19:44:26.316Z,15.10
2017-09-03T19:46:53.888Z,15.10
2017-09-03T19:49:21.849Z,15.00
2017-09-03T19:51:49.397Z,14.90
2017-09-03T19:54:16.934Z,14.90
2017-09-03T19:56:44.566Z,14.80
2017-09-03T19:59:12.137Z,14.80
2017-09-03T20:01:39.717Z,14.70
2017-09-03T20:04:07.358Z,14.60
2017-09-03T20:06:35.245Z,14.60
2017-09-03T20:09:02.772Z,14.60
2017-09-03T20:11:31.053Z,14.60
2017-09-03T20:13:58.901Z,14.60
2017-09-03T20:16:26.827Z,14.50
2017-09-03T20:19:01.382Z,14.40
2017-09-03T20:21:54.896Z,14.50
2017-09-03T20:25:01.183Z,14.40
2017-09-03T20:31:56.413Z,14.30
2017-09-03T20:45:55.326Z,14.00
2017-09-03T20:48:22.886Z,13.90
2017-09-03T20:50:50.477Z,13.90
2017-09-03T20:53:18.033Z,13.90
2017-09-03T20:55:48.338Z,13.80
2017-09-03T20:58:15.869Z,13.80
2017-09-03T21:00:43.407Z,13.80
2017-09-03T21:03:10.991Z,13.70
2017-09-03T21:05:38.574Z,13.70
2017-09-03T21:08:06.124Z,13.70
2017-09-03T21:10:33.656Z,13.60
2017-09-03T21:13:01.516Z,13.60
2017-09-03T21:15:29.185Z,13.50
2017-09-03T21:17:56.773Z,13.50
2017-09-03T21:20:24.315Z,13.40
2017-09-03T21:22:52.641Z,13.40
2017-09-03T21:25:20.182Z,13.40
2017-09-03T21:27:47.728Z,13.30
2017-09-03T21:30:15.309Z,13.30
2017-09-03T21:32:42.852Z,13.30
2017-09-03T21:35:10.993Z,13.20
2017-09-03T21:37:38.542Z,13.20
2017-09-03T21:40:06.082Z,13.20
2017-09-03T21:42:33.856Z,13.20
2017-09-03T21:45:01.392Z,13.20
2017-09-03T21:47:28.974Z,13.10
2017-09-03T21:49:56.516Z,13.10
2017-09-03T21:52:24.138Z,13.10
2017-09-03T21:54:51.677Z,13.00
2017-09-03T21:57:19.442Z,13.00
2017-09-03T21:59:46.977Z,13.00
2017-09-03T22:02:14.565Z,13.00
2017-09-03T22:04:43.093Z,12.90
2017-09-03T22:07:10.808Z,12.90
2017-09-03T22:09:39.405Z,12.90
2017-09-03T22:12:08.487Z,12.90
2017-09-03T22:14:36.129Z,12.80
2017-09-03T22:17:03.668Z,12.80
2017-09-03T22:19:31.582Z,12.80
2017-09-03T22:21:59.530Z,12.70
2017-09-03T22:24:29.281Z,12.70
2017-09-03T22:26:56.974Z,12.70
2017-09-03T22:29:24.828Z,12.60
2017-09-03T22:31:52.386Z,12.60
2017-09-03T22:34:19.924Z,12.60
2017-09-03T22:36:47.862Z,12.60
2017-09-03T22:39:15.405Z,12.60
2017-09-03T22:41:42.941Z,12.50
2017-09-03T22:44:11.074Z,12.50
2017-09-03T22:46:38.610Z,12.50
2017-09-03T22:49:06.153Z,12.50
2017-09-03T22:51:35.493Z,12.50
2017-09-03T22:54:03.025Z,12.50
2017-09-03T22:56:30.563Z,12.50
2017-09-03T22:58:58.298Z,12.50
2017-09-03T23:01:27.269Z,12.50
2017-09-03T23:03:54.806Z,12.50
2017-09-03T23:06:22.640Z,12.50
2017-09-03T23:08:50.174Z,12.50
2017-09-03T23:11:17.704Z,12.50
2017-09-03T23:13:46.501Z,12.50
2017-09-03T23:16:14.055Z,12.50
2017-09-03T23:18:41.589Z,12.40
2017-09-03T23:21:09.694Z,12.40
2017-09-03T23:23:38.029Z,12.40
2017-09-03T23:26:05.576Z,12.40
2017-09-03T23:28:33.156Z,12.30
2017-09-03T23:31:01.205Z,12.30
2017-09-03T23:33:34.713Z,12.30
2017-09-03T23:36:02.561Z,12.20
2017-09-03T23:38:30.114Z,12.20
2017-09-03T23:40:57.705Z,12.20
2017-09-03T23:43:25.255Z,12.10
2017-09-03T23:45:54.316Z,12.10
2017-09-03T23:48:21.874Z,12.10
2017-09-03T23:50:49.613Z,12.00
2017-09-03T23:53:17.165Z,12.00
2017-09-03T23:55:44.752Z,12.00
2017-09-03T23:58:12.291Z,12.00
